sensor_id;sensor_type;location;lat;lon;timestamp;P1;durP1;ratioP1;P2;durP2;ratioP2
16612;SDS011;8419;52.358;9.752;2023-07-02T00:01:19;2.72;;;1.70;;
16612;SDS011;8419;52.358;9.752;2023-07-02T00:04:04;3.12;;;2.40;;
16612;SDS011;8419;52.358;9.752;2023-07-02T00:06:52;2.37;;;2.05;;
16612;SDS011;8419;52.358;9.752;2023-07-02T00:09:38;4.05;;;2.25;;
16612;SDS011;8419;52.358;9.752;2023-07-02T00:12:23;3.10;;;2.37;;
16612;SDS011;8419;52.358;9.752;2023-07-02T00:15:09;2.58;;;2.15;;
16612;SDS011;8419;52.358;9.752;2023-07-02T00:17:55;5.20;;;2.20;;
16612;SDS011;8419;52.358;9.752;2023-07-02T00:20:41;2.85;;;1.90;;
16612;SDS011;8419;52.358;9.752;2023-07-02T00:23:26;2.60;;;1.83;;
16612;SDS011;8419;52.358;9.752;2023-07-02T00:26:12;2.30;;;1.98;;
16612;SDS011;8419;52.358;9.752;2023-07-02T00:28:57;2.62;;;1.85;;
16612;SDS011;8419;52.358;9.752;2023-07-02T00:31:43;4.03;;;2.22;;
16612;SDS011;8419;52.358;9.752;2023-07-02T00:34:29;5.82;;;2.00;;
16612;SDS011;8419;52.358;9.752;2023-07-02T00:37:14;5.00;;;2.28;;
16612;SDS011;8419;52.358;9.752;2023-07-02T00:40:00;2.33;;;2.08;;
16612;SDS011;8419;52.358;9.752;2023-07-02T00:42:46;3.47;;;1.83;;
16612;SDS011;8419;52.358;9.752;2023-07-02T00:45:31;2.67;;;1.60;;
16612;SDS011;8419;52.358;9.752;2023-07-02T00:48:17;3.62;;;1.80;;
16612;SDS011;8419;52.358;9.752;2023-07-02T00:51:03;7.43;;;1.87;;
16612;SDS011;8419;52.358;9.752;2023-07-02T00:53:49;2.62;;;1.83;;
16612;SDS011;8419;52.358;9.752;2023-07-02T00:56:37;4.72;;;1.87;;
16612;SDS011;8419;52.358;9.752;2023-07-02T00:59:23;5.12;;;2.50;;
16612;SDS011;8419;52.358;9.752;2023-07-02T01:02:08;4.97;;;1.92;;
16612;SDS011;8419;52.358;9.752;2023-07-02T01:04:54;2.60;;;1.67;;
16612;SDS011;8419;52.358;9.752;2023-07-02T01:07:42;2.22;;;2.03;;
16612;SDS011;8419;52.358;9.752;2023-07-02T01:10:28;3.97;;;1.90;;
16612;SDS011;8419;52.358;9.752;2023-07-02T01:13:16;8.75;;;2.60;;
16612;SDS011;8419;52.358;9.752;2023-07-02T01:16:06;7.32;;;2.05;;
16612;SDS011;8419;52.358;9.752;2023-07-02T01:18:52;3.17;;;2.08;;
16612;SDS011;8419;52.358;9.752;2023-07-02T01:21:38;5.25;;;2.42;;
16612;SDS011;8419;52.358;9.752;2023-07-02T01:24:24;5.55;;;2.37;;
16612;SDS011;8419;52.358;9.752;2023-07-02T01:27:10;3.75;;;2.40;;
16612;SDS011;8419;52.358;9.752;2023-07-02T01:29:56;6.22;;;2.60;;
16612;SDS011;8419;52.358;9.752;2023-07-02T01:32:43;3.10;;;2.53;;
16612;SDS011;8419;52.358;9.752;2023-07-02T01:35:28;4.45;;;2.53;;
16612;SDS011;8419;52.358;9.752;2023-07-02T01:38:14;3.83;;;2.50;;
16612;SDS011;8419;52.358;9.752;2023-07-02T01:40:59;4.20;;;2.35;;
16612;SDS011;8419;52.358;9.752;2023-07-02T01:43:45;3.25;;;2.37;;
16612;SDS011;8419;52.358;9.752;2023-07-02T01:46:30;4.50;;;2.47;;
16612;SDS011;8419;52.358;9.752;2023-07-02T01:49:16;3.03;;;2.70;;
16612;SDS011;8419;52.358;9.752;2023-07-02T01:52:02;4.68;;;2.47;;
16612;SDS011;8419;52.358;9.752;2023-07-02T01:54:49;5.05;;;2.67;;
16612;SDS011;8419;52.358;9.752;2023-07-02T01:57:36;3.60;;;2.47;;
16612;SDS011;8419;52.358;9.752;2023-07-02T02:00:22;4.75;;;2.55;;
16612;SDS011;8419;52.358;9.752;2023-07-02T02:03:08;7.93;;;3.28;;
16612;SDS011;8419;52.358;9.752;2023-07-02T02:05:54;4.80;;;2.60;;
16612;SDS011;8419;52.358;9.752;2023-07-02T02:08:39;3.30;;;3.00;;
16612;SDS011;8419;52.358;9.752;2023-07-02T02:11:25;4.32;;;2.50;;
16612;SDS011;8419;52.358;9.752;2023-07-02T02:14:11;5.62;;;2.70;;
16612;SDS011;8419;52.358;9.752;2023-07-02T02:16:56;6.62;;;2.72;;
16612;SDS011;8419;52.358;9.752;2023-07-02T02:19:41;4.80;;;2.45;;
16612;SDS011;8419;52.358;9.752;2023-07-02T02:22:27;5.43;;;3.35;;
16612;SDS011;8419;52.358;9.752;2023-07-02T02:25:13;4.10;;;3.12;;
16612;SDS011;8419;52.358;9.752;2023-07-02T02:27:58;4.60;;;3.00;;
16612;SDS011;8419;52.358;9.752;2023-07-02T02:30:44;3.90;;;2.95;;
16612;SDS011;8419;52.358;9.752;2023-07-02T02:33:30;5.47;;;3.03;;
16612;SDS011;8419;52.358;9.752;2023-07-02T02:36:16;5.97;;;3.53;;
16612;SDS011;8419;52.358;9.752;2023-07-02T02:39:02;5.68;;;3.55;;
16612;SDS011;8419;52.358;9.752;2023-07-02T02:41:47;6.50;;;3.12;;
16612;SDS011;8419;52.358;9.752;2023-07-02T02:44:32;12.35;;;3.33;;
16612;SDS011;8419;52.358;9.752;2023-07-02T02:47:18;4.12;;;3.65;;
16612;SDS011;8419;52.358;9.752;2023-07-02T02:50:05;9.25;;;3.70;;
16612;SDS011;8419;52.358;9.752;2023-07-02T02:52:51;6.57;;;3.40;;
16612;SDS011;8419;52.358;9.752;2023-07-02T02:55:36;8.57;;;4.07;;
16612;SDS011;8419;52.358;9.752;2023-07-02T02:58:22;7.68;;;4.15;;
16612;SDS011;8419;52.358;9.752;2023-07-02T03:01:08;5.70;;;4.20;;
16612;SDS011;8419;52.358;9.752;2023-07-02T03:03:55;8.80;;;4.07;;
16612;SDS011;8419;52.358;9.752;2023-07-02T03:06:42;6.95;;;4.30;;
16612;SDS011;8419;52.358;9.752;2023-07-02T03:09:27;7.40;;;3.80;;
16612;SDS011;8419;52.358;9.752;2023-07-02T03:12:13;4.28;;;3.87;;
16612;SDS011;8419;52.358;9.752;2023-07-02T03:14:58;5.75;;;3.90;;
16612;SDS011;8419;52.358;9.752;2023-07-02T03:17:44;5.50;;;3.95;;
16612;SDS011;8419;52.358;9.752;2023-07-02T03:20:29;4.43;;;4.00;;
16612;SDS011;8419;52.358;9.752;2023-07-02T03:23:15;6.18;;;4.10;;
16612;SDS011;8419;52.358;9.752;2023-07-02T03:26:00;5.80;;;4.57;;
16612;SDS011;8419;52.358;9.752;2023-07-02T03:28:45;9.73;;;4.45;;
16612;SDS011;8419;52.358;9.752;2023-07-02T03:31:31;4.82;;;4.05;;
16612;SDS011;8419;52.358;9.752;2023-07-02T03:34:17;6.37;;;4.15;;
16612;SDS011;8419;52.358;9.752;2023-07-02T03:37:02;6.68;;;4.10;;
16612;SDS011;8419;52.358;9.752;2023-07-02T03:39:47;8.18;;;3.95;;
16612;SDS011;8419;52.358;9.752;2023-07-02T03:42:33;8.52;;;4.47;;
16612;SDS011;8419;52.358;9.752;2023-07-02T03:45:18;4.62;;;4.07;;
16612;SDS011;8419;52.358;9.752;2023-07-02T03:48:04;5.75;;;4.00;;
16612;SDS011;8419;52.358;9.752;2023-07-02T03:50:50;6.05;;;4.40;;
16612;SDS011;8419;52.358;9.752;2023-07-02T03:53:36;8.75;;;4.05;;
16612;SDS011;8419;52.358;9.752;2023-07-02T03:56:23;6.85;;;4.75;;
16612;SDS011;8419;52.358;9.752;2023-07-02T03:59:10;4.35;;;3.95;;
16612;SDS011;8419;52.358;9.752;2023-07-02T04:01:56;6.60;;;3.95;;
16612;SDS011;8419;52.358;9.752;2023-07-02T04:04:42;5.40;;;4.40;;
16612;SDS011;8419;52.358;9.752;2023-07-02T04:07:27;5.00;;;4.53;;
16612;SDS011;8419;52.358;9.752;2023-07-02T04:10:14;4.60;;;3.85;;
16612;SDS011;8419;52.358;9.752;2023-07-02T04:13:00;7.18;;;4.60;;
16612;SDS011;8419;52.358;9.752;2023-07-02T04:15:45;5.82;;;4.30;;
16612;SDS011;8419;52.358;9.752;2023-07-02T04:18:31;7.45;;;4.28;;
16612;SDS011;8419;52.358;9.752;2023-07-02T04:21:17;6.05;;;4.45;;
16612;SDS011;8419;52.358;9.752;2023-07-02T04:24:03;6.15;;;4.20;;
16612;SDS011;8419;52.358;9.752;2023-07-02T04:26:49;6.07;;;4.57;;
16612;SDS011;8419;52.358;9.752;2023-07-02T04:29:34;7.37;;;3.53;;
16612;SDS011;8419;52.358;9.752;2023-07-02T04:32:19;6.07;;;4.22;;
16612;SDS011;8419;52.358;9.752;2023-07-02T04:35:05;6.35;;;3.70;;
16612;SDS011;8419;52.358;9.752;2023-07-02T04:37:52;9.85;;;3.70;;
16612;SDS011;8419;52.358;9.752;2023-07-02T04:40:37;5.47;;;3.08;;
16612;SDS011;8419;52.358;9.752;2023-07-02T04:43:22;6.45;;;3.95;;
16612;SDS011;8419;52.358;9.752;2023-07-02T04:46:08;8.82;;;3.55;;
16612;SDS011;8419;52.358;9.752;2023-07-02T04:48:53;7.12;;;3.92;;
16612;SDS011;8419;52.358;9.752;2023-07-02T04:51:38;6.82;;;4.00;;
16612;SDS011;8419;52.358;9.752;2023-07-02T04:54:24;8.55;;;3.37;;
16612;SDS011;8419;52.358;9.752;2023-07-02T04:57:09;8.65;;;4.50;;
16612;SDS011;8419;52.358;9.752;2023-07-02T04:59:55;8.27;;;3.72;;
16612;SDS011;8419;52.358;9.752;2023-07-02T05:02:41;9.30;;;3.28;;
16612;SDS011;8419;52.358;9.752;2023-07-02T05:05:26;7.65;;;4.05;;
16612;SDS011;8419;52.358;9.752;2023-07-02T05:08:12;7.93;;;3.60;;
16612;SDS011;8419;52.358;9.752;2023-07-02T05:10:58;10.93;;;4.75;;
16612;SDS011;8419;52.358;9.752;2023-07-02T05:13:44;8.90;;;4.18;;
16612;SDS011;8419;52.358;9.752;2023-07-02T05:16:29;15.93;;;4.00;;
16612;SDS011;8419;52.358;9.752;2023-07-02T05:19:15;11.48;;;3.50;;
16612;SDS011;8419;52.358;9.752;2023-07-02T05:22:00;5.55;;;3.17;;
16612;SDS011;8419;52.358;9.752;2023-07-02T05:24:46;5.00;;;3.10;;
16612;SDS011;8419;52.358;9.752;2023-07-02T05:27:32;5.90;;;3.40;;
16612;SDS011;8419;52.358;9.752;2023-07-02T05:30:17;7.85;;;3.83;;
16612;SDS011;8419;52.358;9.752;2023-07-02T05:33:03;11.12;;;4.20;;
16612;SDS011;8419;52.358;9.752;2023-07-02T05:35:48;15.05;;;4.68;;
16612;SDS011;8419;52.358;9.752;2023-07-02T05:38:35;9.23;;;4.10;;
16612;SDS011;8419;52.358;9.752;2023-07-02T05:41:21;5.90;;;3.30;;
16612;SDS011;8419;52.358;9.752;2023-07-02T05:44:06;8.75;;;3.62;;
16612;SDS011;8419;52.358;9.752;2023-07-02T05:46:52;6.78;;;3.62;;
16612;SDS011;8419;52.358;9.752;2023-07-02T05:49:38;7.70;;;4.20;;
16612;SDS011;8419;52.358;9.752;2023-07-02T05:52:25;6.60;;;3.55;;
16612;SDS011;8419;52.358;9.752;2023-07-02T05:55:10;8.13;;;3.47;;
16612;SDS011;8419;52.358;9.752;2023-07-02T05:57:55;7.90;;;3.95;;
16612;SDS011;8419;52.358;9.752;2023-07-02T06:00:45;9.68;;;3.90;;
16612;SDS011;8419;52.358;9.752;2023-07-02T06:03:33;5.80;;;3.60;;
16612;SDS011;8419;52.358;9.752;2023-07-02T06:06:19;7.85;;;3.95;;
16612;SDS011;8419;52.358;9.752;2023-07-02T06:09:05;5.90;;;3.22;;
16612;SDS011;8419;52.358;9.752;2023-07-02T06:11:50;7.57;;;3.67;;
16612;SDS011;8419;52.358;9.752;2023-07-02T06:14:35;13.40;;;4.30;;
16612;SDS011;8419;52.358;9.752;2023-07-02T06:17:21;12.37;;;4.35;;
16612;SDS011;8419;52.358;9.752;2023-07-02T06:20:08;7.35;;;3.50;;
16612;SDS011;8419;52.358;9.752;2023-07-02T06:22:56;9.75;;;3.72;;
16612;SDS011;8419;52.358;9.752;2023-07-02T06:25:41;7.85;;;3.15;;
16612;SDS011;8419;52.358;9.752;2023-07-02T06:28:27;11.18;;;4.20;;
16612;SDS011;8419;52.358;9.752;2023-07-02T06:31:12;9.98;;;3.95;;
16612;SDS011;8419;52.358;9.752;2023-07-02T06:33:58;6.85;;;3.53;;
16612;SDS011;8419;52.358;9.752;2023-07-02T06:36:43;6.85;;;2.53;;
16612;SDS011;8419;52.358;9.752;2023-07-02T06:39:28;11.35;;;4.97;;
16612;SDS011;8419;52.358;9.752;2023-07-02T06:42:14;6.87;;;3.55;;
16612;SDS011;8419;52.358;9.752;2023-07-02T06:45:02;11.50;;;3.90;;
16612;SDS011;8419;52.358;9.752;2023-07-02T06:47:50;6.25;;;2.70;;
16612;SDS011;8419;52.358;9.752;2023-07-02T06:50:36;5.53;;;1.90;;
16612;SDS011;8419;52.358;9.752;2023-07-02T06:53:21;9.25;;;4.07;;
16612;SDS011;8419;52.358;9.752;2023-07-02T06:56:08;6.05;;;3.10;;
16612;SDS011;8419;52.358;9.752;2023-07-02T06:58:54;7.30;;;3.28;;
16612;SDS011;8419;52.358;9.752;2023-07-02T07:01:39;10.82;;;4.90;;
16612;SDS011;8419;52.358;9.752;2023-07-02T07:04:25;10.18;;;4.45;;
16612;SDS011;8419;52.358;9.752;2023-07-02T07:07:10;8.07;;;4.20;;
16612;SDS011;8419;52.358;9.752;2023-07-02T07:09:56;4.95;;;2.40;;
16612;SDS011;8419;52.358;9.752;2023-07-02T07:12:42;10.02;;;3.67;;
16612;SDS011;8419;52.358;9.752;2023-07-02T07:15:29;9.45;;;4.07;;
16612;SDS011;8419;52.358;9.752;2023-07-02T07:18:17;6.87;;;3.25;;
16612;SDS011;8419;52.358;9.752;2023-07-02T07:21:03;8.88;;;2.78;;
16612;SDS011;8419;52.358;9.752;2023-07-02T07:23:49;8.32;;;2.90;;
16612;SDS011;8419;52.358;9.752;2023-07-02T07:26:34;7.53;;;4.07;;
16612;SDS011;8419;52.358;9.752;2023-07-02T07:29:20;8.60;;;3.75;;
16612;SDS011;8419;52.358;9.752;2023-07-02T07:32:07;9.10;;;3.58;;
16612;SDS011;8419;52.358;9.752;2023-07-02T07:34:52;10.63;;;3.40;;
16612;SDS011;8419;52.358;9.752;2023-07-02T07:37:38;5.70;;;2.75;;
16612;SDS011;8419;52.358;9.752;2023-07-02T07:40:24;8.98;;;2.95;;
16612;SDS011;8419;52.358;9.752;2023-07-02T07:43:09;7.15;;;4.05;;
16612;SDS011;8419;52.358;9.752;2023-07-02T07:45:55;8.77;;;3.92;;
16612;SDS011;8419;52.358;9.752;2023-07-02T07:48:42;13.05;;;4.60;;
16612;SDS011;8419;52.358;9.752;2023-07-02T07:51:28;9.88;;;3.80;;
16612;SDS011;8419;52.358;9.752;2023-07-02T07:54:16;11.32;;;5.22;;
16612;SDS011;8419;52.358;9.752;2023-07-02T07:57:02;11.10;;;4.37;;
16612;SDS011;8419;52.358;9.752;2023-07-02T07:59:48;9.93;;;3.42;;
16612;SDS011;8419;52.358;9.752;2023-07-02T08:02:33;11.05;;;4.62;;
16612;SDS011;8419;52.358;9.752;2023-07-02T08:05:19;7.35;;;3.80;;
16612;SDS011;8419;52.358;9.752;2023-07-02T08:08:04;12.63;;;5.00;;
16612;SDS011;8419;52.358;9.752;2023-07-02T08:10:50;10.05;;;4.47;;
16612;SDS011;8419;52.358;9.752;2023-07-02T08:13:37;7.82;;;3.00;;
16612;SDS011;8419;52.358;9.752;2023-07-02T08:16:23;7.20;;;4.75;;
16612;SDS011;8419;52.358;9.752;2023-07-02T08:19:08;16.10;;;4.28;;
16612;SDS011;8419;52.358;9.752;2023-07-02T08:21:53;9.95;;;4.15;;
16612;SDS011;8419;52.358;9.752;2023-07-02T08:24:39;10.35;;;3.70;;
16612;SDS011;8419;52.358;9.752;2023-07-02T08:27:24;8.52;;;2.80;;
16612;SDS011;8419;52.358;9.752;2023-07-02T08:30:10;5.53;;;2.87;;
16612;SDS011;8419;52.358;9.752;2023-07-02T08:32:57;5.03;;;2.75;;
16612;SDS011;8419;52.358;9.752;2023-07-02T08:35:43;6.40;;;2.30;;
16612;SDS011;8419;52.358;9.752;2023-07-02T08:38:28;13.05;;;4.47;;
16612;SDS011;8419;52.358;9.752;2023-07-02T08:41:14;9.57;;;3.40;;
16612;SDS011;8419;52.358;9.752;2023-07-02T08:44:00;9.23;;;4.05;;
16612;SDS011;8419;52.358;9.752;2023-07-02T08:46:49;11.57;;;4.80;;
16612;SDS011;8419;52.358;9.752;2023-07-02T08:49:37;11.00;;;2.83;;
16612;SDS011;8419;52.358;9.752;2023-07-02T08:52:23;13.85;;;4.80;;
16612;SDS011;8419;52.358;9.752;2023-07-02T08:55:09;11.25;;;5.07;;
16612;SDS011;8419;52.358;9.752;2023-07-02T08:57:55;14.40;;;3.92;;
16612;SDS011;8419;52.358;9.752;2023-07-02T09:01:03;7.57;;;3.75;;
16612;SDS011;8419;52.358;9.752;2023-07-02T09:03:50;7.03;;;3.47;;
16612;SDS011;8419;52.358;9.752;2023-07-02T09:06:35;10.40;;;3.55;;
16612;SDS011;8419;52.358;9.752;2023-07-02T09:09:21;10.50;;;3.65;;
16612;SDS011;8419;52.358;9.752;2023-07-02T09:12:07;9.93;;;4.93;;
16612;SDS011;8419;52.358;9.752;2023-07-02T09:14:57;8.52;;;4.20;;
16612;SDS011;8419;52.358;9.752;2023-07-02T09:17:43;4.80;;;2.47;;
16612;SDS011;8419;52.358;9.752;2023-07-02T09:20:32;6.85;;;3.35;;
16612;SDS011;8419;52.358;9.752;2023-07-02T09:23:18;11.15;;;4.07;;
16612;SDS011;8419;52.358;9.752;2023-07-02T09:26:04;14.52;;;3.87;;
16612;SDS011;8419;52.358;9.752;2023-07-02T09:28:50;5.07;;;2.42;;
16612;SDS011;8419;52.358;9.752;2023-07-02T09:31:45;8.85;;;4.15;;
16612;SDS011;8419;52.358;9.752;2023-07-02T09:34:31;9.30;;;4.72;;
16612;SDS011;8419;52.358;9.752;2023-07-02T09:37:18;12.43;;;4.70;;
16612;SDS011;8419;52.358;9.752;2023-07-02T09:40:05;8.90;;;4.45;;
16612;SDS011;8419;52.358;9.752;2023-07-02T09:42:53;14.13;;;5.05;;
16612;SDS011;8419;52.358;9.752;2023-07-02T09:45:42;11.23;;;4.32;;
16612;SDS011;8419;52.358;9.752;2023-07-02T09:48:29;10.15;;;4.15;;
16612;SDS011;8419;52.358;9.752;2023-07-02T09:51:19;12.07;;;4.80;;
16612;SDS011;8419;52.358;9.752;2023-07-02T09:54:05;9.18;;;4.65;;
16612;SDS011;8419;52.358;9.752;2023-07-02T09:56:51;8.95;;;4.60;;
16612;SDS011;8419;52.358;9.752;2023-07-02T09:59:37;11.82;;;4.70;;
16612;SDS011;8419;52.358;9.752;2023-07-02T10:02:23;9.05;;;3.78;;
16612;SDS011;8419;52.358;9.752;2023-07-02T10:05:10;11.12;;;4.32;;
16612;SDS011;8419;52.358;9.752;2023-07-02T10:08:12;6.15;;;3.25;;
16612;SDS011;8419;52.358;9.752;2023-07-02T10:11:09;6.07;;;3.22;;
16612;SDS011;8419;52.358;9.752;2023-07-02T10:13:58;10.88;;;3.95;;
16612;SDS011;8419;52.358;9.752;2023-07-02T10:16:51;8.30;;;3.70;;
16612;SDS011;8419;52.358;9.752;2023-07-02T10:19:38;5.12;;;2.55;;
16612;SDS011;8419;52.358;9.752;2023-07-02T10:22:56;10.93;;;4.12;;
16612;SDS011;8419;52.358;9.752;2023-07-02T10:25:42;8.07;;;3.75;;
16612;SDS011;8419;52.358;9.752;2023-07-02T10:28:28;9.43;;;4.12;;
16612;SDS011;8419;52.358;9.752;2023-07-02T10:31:19;4.32;;;1.95;;
16612;SDS011;8419;52.358;9.752;2023-07-02T10:34:06;8.05;;;3.40;;
16612;SDS011;8419;52.358;9.752;2023-07-02T10:36:53;8.93;;;4.78;;
16612;SDS011;8419;52.358;9.752;2023-07-02T10:39:39;7.87;;;3.42;;
16612;SDS011;8419;52.358;9.752;2023-07-02T10:42:25;6.30;;;3.40;;
16612;SDS011;8419;52.358;9.752;2023-07-02T10:45:10;11.55;;;4.80;;
16612;SDS011;8419;52.358;9.752;2023-07-02T10:47:56;7.97;;;2.75;;
16612;SDS011;8419;52.358;9.752;2023-07-02T10:50:41;6.05;;;3.08;;
16612;SDS011;8419;52.358;9.752;2023-07-02T10:53:30;4.25;;;2.08;;
16612;SDS011;8419;52.358;9.752;2023-07-02T10:56:18;6.70;;;3.65;;
16612;SDS011;8419;52.358;9.752;2023-07-02T10:59:04;8.93;;;4.28;;
16612;SDS011;8419;52.358;9.752;2023-07-02T11:01:52;8.85;;;3.37;;
16612;SDS011;8419;52.358;9.752;2023-07-02T11:04:43;8.77;;;3.45;;
16612;SDS011;8419;52.358;9.752;2023-07-02T11:07:28;8.40;;;2.90;;
16612;SDS011;8419;52.358;9.752;2023-07-02T11:13:43;9.68;;;3.65;;
16612;SDS011;8419;52.358;9.752;2023-07-02T11:16:31;7.05;;;3.53;;
16612;SDS011;8419;52.358;9.752;2023-07-02T11:19:17;6.32;;;3.67;;
16612;SDS011;8419;52.358;9.752;2023-07-02T11:22:04;4.95;;;3.53;;
16612;SDS011;8419;52.358;9.752;2023-07-02T11:24:50;8.45;;;3.78;;
16612;SDS011;8419;52.358;9.752;2023-07-02T11:27:36;7.40;;;2.65;;
16612;SDS011;8419;52.358;9.752;2023-07-02T11:30:21;9.88;;;3.75;;
16612;SDS011;8419;52.358;9.752;2023-07-02T11:33:07;5.57;;;3.85;;
16612;SDS011;8419;52.358;9.752;2023-07-02T11:35:52;5.07;;;2.30;;
16612;SDS011;8419;52.358;9.752;2023-07-02T11:38:37;8.65;;;3.83;;
16612;SDS011;8419;52.358;9.752;2023-07-02T11:41:22;10.50;;;3.90;;
16612;SDS011;8419;52.358;9.752;2023-07-02T11:44:08;4.25;;;2.30;;
16612;SDS011;8419;52.358;9.752;2023-07-02T11:46:53;5.00;;;3.22;;
16612;SDS011;8419;52.358;9.752;2023-07-02T11:49:42;5.80;;;3.12;;
16612;SDS011;8419;52.358;9.752;2023-07-02T11:52:27;7.78;;;3.45;;
16612;SDS011;8419;52.358;9.752;2023-07-02T11:55:13;6.40;;;3.37;;
16612;SDS011;8419;52.358;9.752;2023-07-02T11:57:59;5.87;;;3.75;;
16612;SDS011;8419;52.358;9.752;2023-07-02T12:00:45;5.97;;;4.00;;
16612;SDS011;8419;52.358;9.752;2023-07-02T12:03:33;5.85;;;3.25;;
16612;SDS011;8419;52.358;9.752;2023-07-02T12:06:21;6.18;;;2.85;;
16612;SDS011;8419;52.358;9.752;2023-07-02T12:09:06;12.43;;;3.70;;
16612;SDS011;8419;52.358;9.752;2023-07-02T12:11:52;10.57;;;3.35;;
16612;SDS011;8419;52.358;9.752;2023-07-02T12:14:38;7.25;;;3.60;;
16612;SDS011;8419;52.358;9.752;2023-07-02T12:17:27;7.80;;;3.28;;
16612;SDS011;8419;52.358;9.752;2023-07-02T12:20:13;5.75;;;3.03;;
16612;SDS011;8419;52.358;9.752;2023-07-02T12:23:01;7.47;;;3.37;;
16612;SDS011;8419;52.358;9.752;2023-07-02T12:25:46;8.40;;;3.60;;
16612;SDS011;8419;52.358;9.752;2023-07-02T12:28:32;10.32;;;3.30;;
16612;SDS011;8419;52.358;9.752;2023-07-02T12:31:18;3.90;;;2.40;;
16612;SDS011;8419;52.358;9.752;2023-07-02T12:34:03;6.85;;;3.92;;
16612;SDS011;8419;52.358;9.752;2023-07-02T12:36:49;8.75;;;3.47;;
16612;SDS011;8419;52.358;9.752;2023-07-02T12:39:34;6.65;;;3.05;;
16612;SDS011;8419;52.358;9.752;2023-07-02T12:42:20;5.25;;;2.55;;
16612;SDS011;8419;52.358;9.752;2023-07-02T12:45:09;8.38;;;3.65;;
16612;SDS011;8419;52.358;9.752;2023-07-02T12:47:56;7.70;;;3.30;;
16612;SDS011;8419;52.358;9.752;2023-07-02T12:50:42;7.35;;;3.40;;
16612;SDS011;8419;52.358;9.752;2023-07-02T12:53:37;13.18;;;4.43;;
16612;SDS011;8419;52.358;9.752;2023-07-02T12:56:22;11.12;;;3.60;;
16612;SDS011;8419;52.358;9.752;2023-07-02T12:59:08;4.68;;;1.62;;
16612;SDS011;8419;52.358;9.752;2023-07-02T13:01:54;6.43;;;3.33;;
16612;SDS011;8419;52.358;9.752;2023-07-02T13:04:39;6.70;;;3.05;;
16612;SDS011;8419;52.358;9.752;2023-07-02T13:07:25;7.12;;;3.20;;
16612;SDS011;8419;52.358;9.752;2023-07-02T13:10:10;6.40;;;3.33;;
16612;SDS011;8419;52.358;9.752;2023-07-02T13:12:56;11.50;;;3.62;;
16612;SDS011;8419;52.358;9.752;2023-07-02T13:15:42;6.95;;;3.42;;
16612;SDS011;8419;52.358;9.752;2023-07-02T13:18:27;6.82;;;2.70;;
16612;SDS011;8419;52.358;9.752;2023-07-02T13:21:13;6.22;;;2.62;;
16612;SDS011;8419;52.358;9.752;2023-07-02T13:24:00;5.80;;;3.60;;
16612;SDS011;8419;52.358;9.752;2023-07-02T13:26:46;3.05;;;2.20;;
16612;SDS011;8419;52.358;9.752;2023-07-02T13:29:32;6.55;;;3.33;;
16612;SDS011;8419;52.358;9.752;2023-07-02T13:32:18;6.72;;;3.10;;
16612;SDS011;8419;52.358;9.752;2023-07-02T13:35:04;10.45;;;4.15;;
16612;SDS011;8419;52.358;9.752;2023-07-02T13:37:52;4.97;;;2.17;;
16612;SDS011;8419;52.358;9.752;2023-07-02T13:40:41;4.90;;;3.00;;
16612;SDS011;8419;52.358;9.752;2023-07-02T13:43:29;8.88;;;3.67;;
16612;SDS011;8419;52.358;9.752;2023-07-02T13:46:15;6.75;;;2.80;;
16612;SDS011;8419;52.358;9.752;2023-07-02T13:49:04;6.03;;;3.20;;
16612;SDS011;8419;52.358;9.752;2023-07-02T13:51:50;8.93;;;3.62;;
16612;SDS011;8419;52.358;9.752;2023-07-02T13:54:35;7.00;;;3.15;;
16612;SDS011;8419;52.358;9.752;2023-07-02T13:57:21;4.43;;;2.45;;
16612;SDS011;8419;52.358;9.752;2023-07-02T14:00:07;6.03;;;2.72;;
16612;SDS011;8419;52.358;9.752;2023-07-02T14:02:56;8.50;;;3.53;;
16612;SDS011;8419;52.358;9.752;2023-07-02T14:05:42;4.40;;;2.22;;
16612;SDS011;8419;52.358;9.752;2023-07-02T14:08:28;5.60;;;2.35;;
16612;SDS011;8419;52.358;9.752;2023-07-02T14:11:13;5.70;;;2.78;;
16612;SDS011;8419;52.358;9.752;2023-07-02T14:13:58;5.03;;;2.70;;
16612;SDS011;8419;52.358;9.752;2023-07-02T14:16:44;10.32;;;3.35;;
16612;SDS011;8419;52.358;9.752;2023-07-02T14:19:30;7.53;;;2.72;;
16612;SDS011;8419;52.358;9.752;2023-07-02T14:22:15;4.35;;;2.25;;
16612;SDS011;8419;52.358;9.752;2023-07-02T14:25:00;5.07;;;2.47;;
16612;SDS011;8419;52.358;9.752;2023-07-02T14:27:46;5.90;;;3.00;;
16612;SDS011;8419;52.358;9.752;2023-07-02T14:30:32;5.57;;;2.75;;
16612;SDS011;8419;52.358;9.752;2023-07-02T14:33:17;6.03;;;2.45;;
16612;SDS011;8419;52.358;9.752;2023-07-02T14:36:03;5.43;;;3.08;;
16612;SDS011;8419;52.358;9.752;2023-07-02T14:38:49;3.60;;;2.28;;
16612;SDS011;8419;52.358;9.752;2023-07-02T14:41:36;7.65;;;3.58;;
16612;SDS011;8419;52.358;9.752;2023-07-02T14:44:26;3.65;;;1.92;;
16612;SDS011;8419;52.358;9.752;2023-07-02T14:47:12;3.30;;;2.20;;
16612;SDS011;8419;52.358;9.752;2023-07-02T14:49:57;5.45;;;3.35;;
16612;SDS011;8419;52.358;9.752;2023-07-02T14:52:43;7.30;;;3.47;;
16612;SDS011;8419;52.358;9.752;2023-07-02T14:55:28;7.40;;;3.62;;
16612;SDS011;8419;52.358;9.752;2023-07-02T14:58:15;7.10;;;3.45;;
16612;SDS011;8419;52.358;9.752;2023-07-02T15:01:02;3.97;;;2.20;;
16612;SDS011;8419;52.358;9.752;2023-07-02T15:03:47;5.80;;;3.12;;
16612;SDS011;8419;52.358;9.752;2023-07-02T15:06:33;5.22;;;2.65;;
16612;SDS011;8419;52.358;9.752;2023-07-02T15:09:19;4.30;;;2.75;;
16612;SDS011;8419;52.358;9.752;2023-07-02T15:12:07;5.55;;;3.30;;
16612;SDS011;8419;52.358;9.752;2023-07-02T15:14:53;4.00;;;2.45;;
16612;SDS011;8419;52.358;9.752;2023-07-02T15:17:39;6.40;;;2.95;;
16612;SDS011;8419;52.358;9.752;2023-07-02T15:20:24;4.47;;;3.17;;
16612;SDS011;8419;52.358;9.752;2023-07-02T15:23:10;5.03;;;2.35;;
16612;SDS011;8419;52.358;9.752;2023-07-02T15:25:56;5.15;;;2.92;;
16612;SDS011;8419;52.358;9.752;2023-07-02T15:28:42;3.72;;;2.00;;
16612;SDS011;8419;52.358;9.752;2023-07-02T15:31:28;5.43;;;2.83;;
16612;SDS011;8419;52.358;9.752;2023-07-02T15:34:14;7.85;;;3.10;;
16612;SDS011;8419;52.358;9.752;2023-07-02T15:37:03;4.35;;;2.17;;
16612;SDS011;8419;52.358;9.752;2023-07-02T15:39:49;6.18;;;2.90;;
16612;SDS011;8419;52.358;9.752;2023-07-02T15:42:35;5.90;;;2.58;;
16612;SDS011;8419;52.358;9.752;2023-07-02T15:45:22;5.35;;;3.00;;
16612;SDS011;8419;52.358;9.752;2023-07-02T15:48:08;3.97;;;1.85;;
16612;SDS011;8419;52.358;9.752;2023-07-02T15:50:53;4.45;;;2.30;;
16612;SDS011;8419;52.358;9.752;2023-07-02T15:53:39;3.62;;;2.22;;
16612;SDS011;8419;52.358;9.752;2023-07-02T15:56:26;3.95;;;2.72;;
16612;SDS011;8419;52.358;9.752;2023-07-02T15:59:12;4.75;;;2.72;;
16612;SDS011;8419;52.358;9.752;2023-07-02T16:01:58;5.50;;;2.50;;
16612;SDS011;8419;52.358;9.752;2023-07-02T16:04:43;3.80;;;2.33;;
16612;SDS011;8419;52.358;9.752;2023-07-02T16:07:30;4.80;;;2.80;;
16612;SDS011;8419;52.358;9.752;2023-07-02T16:10:16;5.65;;;2.50;;
16612;SDS011;8419;52.358;9.752;2023-07-02T16:13:01;4.32;;;2.15;;
16612;SDS011;8419;52.358;9.752;2023-07-02T16:15:48;5.40;;;2.58;;
16612;SDS011;8419;52.358;9.752;2023-07-02T16:18:33;7.75;;;3.05;;
16612;SDS011;8419;52.358;9.752;2023-07-02T16:21:19;4.25;;;2.20;;
16612;SDS011;8419;52.358;9.752;2023-07-02T16:24:05;5.75;;;2.30;;
16612;SDS011;8419;52.358;9.752;2023-07-02T16:26:52;7.85;;;2.55;;
16612;SDS011;8419;52.358;9.752;2023-07-02T16:29:40;4.93;;;2.50;;
16612;SDS011;8419;52.358;9.752;2023-07-02T16:32:32;5.47;;;2.58;;
16612;SDS011;8419;52.358;9.752;2023-07-02T16:35:17;5.35;;;2.30;;
16612;SDS011;8419;52.358;9.752;2023-07-02T16:38:05;3.35;;;1.87;;
16612;SDS011;8419;52.358;9.752;2023-07-02T16:40:51;4.75;;;3.08;;
16612;SDS011;8419;52.358;9.752;2023-07-02T16:43:37;6.97;;;2.60;;
16612;SDS011;8419;52.358;9.752;2023-07-02T16:46:22;8.32;;;2.60;;
16612;SDS011;8419;52.358;9.752;2023-07-02T16:49:08;3.67;;;2.10;;
16612;SDS011;8419;52.358;9.752;2023-07-02T16:51:53;6.37;;;2.75;;
16612;SDS011;8419;52.358;9.752;2023-07-02T16:54:39;3.75;;;2.33;;
16612;SDS011;8419;52.358;9.752;2023-07-02T16:57:25;2.33;;;1.80;;
16612;SDS011;8419;52.358;9.752;2023-07-02T17:00:12;4.22;;;1.65;;